sensor_id;sensor_type;location;lat;lon;timestamp;P1;durP1;ratioP1;P2;durP2;ratioP2
36747;SDS011;22716;51.556;5.080;2023-04-03T00:01:41;5.40;;;2.43;;
36747;SDS011;22716;51.556;5.080;2023-04-03T00:04:10;6.20;;;2.77;;
36747;SDS011;22716;51.556;5.080;2023-04-03T00:06:39;6.47;;;3.10;;
36747;SDS011;22716;51.556;5.080;2023-04-03T00:09:07;4.10;;;2.57;;
36747;SDS011;22716;51.556;5.080;2023-04-03T00:11:36;9.87;;;2.77;;
36747;SDS011;22716;51.556;5.080;2023-04-03T00:14:05;5.03;;;3.10;;
36747;SDS011;22716;51.556;5.080;2023-04-03T00:16:36;6.23;;;2.80;;
36747;SDS011;22716;51.556;5.080;2023-04-03T00:19:05;5.47;;;3.00;;
36747;SDS011;22716;51.556;5.080;2023-04-03T00:21:34;8.87;;;2.50;;
36747;SDS011;22716;51.556;5.080;2023-04-03T00:24:03;4.20;;;2.40;;
36747;SDS011;22716;51.556;5.080;2023-04-03T00:26:32;4.77;;;2.97;;
36747;SDS011;22716;51.556;5.080;2023-04-03T00:29:01;4.83;;;2.33;;
36747;SDS011;22716;51.556;5.080;2023-04-03T00:31:30;5.93;;;3.60;;
36747;SDS011;22716;51.556;5.080;2023-04-03T00:34:01;4.50;;;2.73;;
36747;SDS011;22716;51.556;5.080;2023-04-03T00:36:30;4.43;;;2.43;;
36747;SDS011;22716;51.556;5.080;2023-04-03T00:38:58;4.00;;;2.27;;
36747;SDS011;22716;51.556;5.080;2023-04-03T00:41:27;4.43;;;2.17;;
36747;SDS011;22716;51.556;5.080;2023-04-03T00:43:57;8.87;;;3.17;;
36747;SDS011;22716;51.556;5.080;2023-04-03T00:46:26;5.67;;;2.73;;
36747;SDS011;22716;51.556;5.080;2023-04-03T00:48:54;4.67;;;2.70;;
36747;SDS011;22716;51.556;5.080;2023-04-03T00:51:26;4.10;;;2.37;;
36747;SDS011;22716;51.556;5.080;2023-04-03T00:53:56;4.77;;;2.33;;
36747;SDS011;22716;51.556;5.080;2023-04-03T00:56:29;2.88;;;2.45;;
36747;SDS011;22716;51.556;5.080;2023-04-03T00:58:58;6.33;;;2.93;;
36747;SDS011;22716;51.556;5.080;2023-04-03T01:01:30;4.33;;;2.27;;
36747;SDS011;22716;51.556;5.080;2023-04-03T01:03:59;4.20;;;2.77;;
36747;SDS011;22716;51.556;5.080;2023-04-03T01:06:32;5.27;;;2.33;;
36747;SDS011;22716;51.556;5.080;2023-04-03T01:09:04;5.10;;;2.20;;
36747;SDS011;22716;51.556;5.080;2023-04-03T01:11:33;3.53;;;2.50;;
36747;SDS011;22716;51.556;5.080;2023-04-03T01:14:02;9.80;;;2.87;;
36747;SDS011;22716;51.556;5.080;2023-04-03T01:16:31;3.40;;;2.47;;
36747;SDS011;22716;51.556;5.080;2023-04-03T01:19:00;6.17;;;2.80;;
36747;SDS011;22716;51.556;5.080;2023-04-03T01:24:40;5.63;;;3.30;;
36747;SDS011;22716;51.556;5.080;2023-04-03T01:27:10;4.93;;;2.47;;
36747;SDS011;22716;51.556;5.080;2023-04-03T01:29:40;4.37;;;3.13;;
36747;SDS011;22716;51.556;5.080;2023-04-03T01:32:14;3.37;;;2.43;;
36747;SDS011;22716;51.556;5.080;2023-04-03T01:34:42;4.20;;;3.13;;
36747;SDS011;22716;51.556;5.080;2023-04-03T01:37:11;4.67;;;2.60;;
36747;SDS011;22716;51.556;5.080;2023-04-03T01:39:40;5.90;;;2.23;;
36747;SDS011;22716;51.556;5.080;2023-04-03T01:42:08;4.23;;;2.67;;
36747;SDS011;22716;51.556;5.080;2023-04-03T01:44:37;5.87;;;2.27;;
36747;SDS011;22716;51.556;5.080;2023-04-03T01:47:06;3.57;;;2.80;;
36747;SDS011;22716;51.556;5.080;2023-04-03T01:49:38;3.97;;;2.43;;
36747;SDS011;22716;51.556;5.080;2023-04-03T01:52:07;3.40;;;2.70;;
36747;SDS011;22716;51.556;5.080;2023-04-03T01:54:36;6.77;;;2.67;;
36747;SDS011;22716;51.556;5.080;2023-04-03T01:57:05;3.30;;;2.53;;
36747;SDS011;22716;51.556;5.080;2023-04-03T01:59:34;4.83;;;2.27;;
36747;SDS011;22716;51.556;5.080;2023-04-03T02:02:02;3.80;;;2.50;;
36747;SDS011;22716;51.556;5.080;2023-04-03T02:04:31;9.87;;;2.70;;
36747;SDS011;22716;51.556;5.080;2023-04-03T02:07:02;4.73;;;2.43;;
36747;SDS011;22716;51.556;5.080;2023-04-03T02:09:31;3.10;;;2.63;;
36747;SDS011;22716;51.556;5.080;2023-04-03T02:12:00;3.37;;;2.53;;
36747;SDS011;22716;51.556;5.080;2023-04-03T02:14:28;6.23;;;2.30;;
36747;SDS011;22716;51.556;5.080;2023-04-03T02:16:58;3.57;;;2.50;;
36747;SDS011;22716;51.556;5.080;2023-04-03T02:19:30;7.63;;;3.20;;
36747;SDS011;22716;51.556;5.080;2023-04-03T02:21:59;6.63;;;2.57;;
36747;SDS011;22716;51.556;5.080;2023-04-03T02:24:30;3.30;;;2.23;;
36747;SDS011;22716;51.556;5.080;2023-04-03T02:27:00;4.33;;;1.80;;
36747;SDS011;22716;51.556;5.080;2023-04-03T02:29:28;3.87;;;2.10;;
36747;SDS011;22716;51.556;5.080;2023-04-03T02:31:57;7.53;;;2.47;;
36747;SDS011;22716;51.556;5.080;2023-04-03T02:34:26;4.77;;;2.20;;
36747;SDS011;22716;51.556;5.080;2023-04-03T02:36:55;4.40;;;2.57;;
36747;SDS011;22716;51.556;5.080;2023-04-03T02:39:23;5.10;;;2.30;;
36747;SDS011;22716;51.556;5.080;2023-04-03T02:41:55;3.93;;;3.13;;
36747;SDS011;22716;51.556;5.080;2023-04-03T02:44:23;4.17;;;2.33;;
36747;SDS011;22716;51.556;5.080;2023-04-03T02:46:52;7.90;;;2.73;;
36747;SDS011;22716;51.556;5.080;2023-04-03T02:49:21;3.57;;;2.47;;
36747;SDS011;22716;51.556;5.080;2023-04-03T02:51:50;2.40;;;1.83;;
36747;SDS011;22716;51.556;5.080;2023-04-03T02:54:19;4.80;;;2.10;;
36747;SDS011;22716;51.556;5.080;2023-04-03T02:56:51;3.27;;;2.10;;
36747;SDS011;22716;51.556;5.080;2023-04-03T02:59:22;6.33;;;1.90;;
36747;SDS011;22716;51.556;5.080;2023-04-03T03:01:51;6.33;;;3.07;;
36747;SDS011;22716;51.556;5.080;2023-04-03T03:04:21;4.10;;;2.43;;
36747;SDS011;22716;51.556;5.080;2023-04-03T03:06:49;3.63;;;2.13;;
36747;SDS011;22716;51.556;5.080;2023-04-03T03:09:18;5.97;;;2.33;;
36747;SDS011;22716;51.556;5.080;2023-04-03T03:11:47;2.87;;;2.33;;
36747;SDS011;22716;51.556;5.080;2023-04-03T03:14:16;5.47;;;2.20;;
36747;SDS011;22716;51.556;5.080;2023-04-03T03:16:47;4.50;;;2.30;;
36747;SDS011;22716;51.556;5.080;2023-04-03T03:19:16;2.93;;;1.70;;
36747;SDS011;22716;51.556;5.080;2023-04-03T03:21:45;5.57;;;2.10;;
36747;SDS011;22716;51.556;5.080;2023-04-03T03:24:14;4.63;;;1.77;;
36747;SDS011;22716;51.556;5.080;2023-04-03T03:26:44;2.77;;;1.70;;
36747;SDS011;22716;51.556;5.080;2023-04-03T03:29:12;2.67;;;1.93;;
36747;SDS011;22716;51.556;5.080;2023-04-03T03:31:41;6.00;;;3.10;;
36747;SDS011;22716;51.556;5.080;2023-04-03T03:34:12;4.30;;;2.00;;
36747;SDS011;22716;51.556;5.080;2023-04-03T03:36:41;6.43;;;2.20;;
36747;SDS011;22716;51.556;5.080;2023-04-03T03:39:10;5.07;;;1.87;;
36747;SDS011;22716;51.556;5.080;2023-04-03T03:41:38;5.37;;;2.70;;
36747;SDS011;22716;51.556;5.080;2023-04-03T03:44:07;6.27;;;2.50;;
36747;SDS011;22716;51.556;5.080;2023-04-03T03:46:36;9.20;;;2.63;;
36747;SDS011;22716;51.556;5.080;2023-04-03T03:49:05;4.03;;;2.53;;
36747;SDS011;22716;51.556;5.080;2023-04-03T03:51:36;5.80;;;2.50;;
36747;SDS011;22716;51.556;5.080;2023-04-03T03:54:06;3.57;;;1.93;;
36747;SDS011;22716;51.556;5.080;2023-04-03T03:56:35;4.77;;;3.17;;
36747;SDS011;22716;51.556;5.080;2023-04-03T03:59:05;9.47;;;3.07;;
36747;SDS011;22716;51.556;5.080;2023-04-03T04:01:33;6.50;;;2.30;;
36747;SDS011;22716;51.556;5.080;2023-04-03T04:04:02;3.93;;;2.30;;
36747;SDS011;22716;51.556;5.080;2023-04-03T04:06:31;3.07;;;2.40;;
36747;SDS011;22716;51.556;5.080;2023-04-03T04:09:02;6.77;;;2.80;;
36747;SDS011;22716;51.556;5.080;2023-04-03T04:11:31;3.67;;;1.97;;
36747;SDS011;22716;51.556;5.080;2023-04-03T04:14:00;3.90;;;2.13;;
36747;SDS011;22716;51.556;5.080;2023-04-03T04:16:29;5.43;;;2.90;;
36747;SDS011;22716;51.556;5.080;2023-04-03T04:18:58;5.93;;;2.30;;
36747;SDS011;22716;51.556;5.080;2023-04-03T04:21:26;7.80;;;3.27;;
36747;SDS011;22716;51.556;5.080;2023-04-03T04:23:55;3.20;;;2.77;;
36747;SDS011;22716;51.556;5.080;2023-04-03T04:26:26;3.27;;;2.57;;
36747;SDS011;22716;51.556;5.080;2023-04-03T04:28:55;5.13;;;2.20;;
36747;SDS011;22716;51.556;5.080;2023-04-03T04:31:24;7.43;;;3.33;;
36747;SDS011;22716;51.556;5.080;2023-04-03T04:33:53;5.93;;;2.30;;
36747;SDS011;22716;51.556;5.080;2023-04-03T04:36:21;3.13;;;2.00;;
36747;SDS011;22716;51.556;5.080;2023-04-03T04:38:51;11.03;;;4.50;;
36747;SDS011;22716;51.556;5.080;2023-04-03T04:41:21;3.30;;;2.13;;
36747;SDS011;22716;51.556;5.080;2023-04-03T04:43:52;4.73;;;2.07;;
36747;SDS011;22716;51.556;5.080;2023-04-03T04:46:21;3.53;;;2.13;;
36747;SDS011;22716;51.556;5.080;2023-04-03T04:48:50;2.60;;;2.27;;
36747;SDS011;22716;51.556;5.080;2023-04-03T04:51:19;4.60;;;2.70;;
36747;SDS011;22716;51.556;5.080;2023-04-03T04:53:47;3.80;;;2.73;;
36747;SDS011;22716;51.556;5.080;2023-04-03T04:56:16;3.37;;;2.27;;
36747;SDS011;22716;51.556;5.080;2023-04-03T04:58:46;3.90;;;2.27;;
36747;SDS011;22716;51.556;5.080;2023-04-03T05:01:17;6.93;;;2.73;;
36747;SDS011;22716;51.556;5.080;2023-04-03T05:03:46;5.20;;;2.40;;
36747;SDS011;22716;51.556;5.080;2023-04-03T05:06:15;5.87;;;2.77;;
36747;SDS011;22716;51.556;5.080;2023-04-03T05:08:43;7.07;;;2.40;;
36747;SDS011;22716;51.556;5.080;2023-04-03T05:11:12;6.77;;;2.53;;
36747;SDS011;22716;51.556;5.080;2023-04-03T05:13:41;5.50;;;3.37;;
36747;SDS011;22716;51.556;5.080;2023-04-03T05:16:10;5.17;;;2.37;;
36747;SDS011;22716;51.556;5.080;2023-04-03T05:18:41;7.57;;;2.73;;
36747;SDS011;22716;51.556;5.080;2023-04-03T05:21:10;7.27;;;2.43;;
36747;SDS011;22716;51.556;5.080;2023-04-03T05:23:39;9.77;;;3.00;;
36747;SDS011;22716;51.556;5.080;2023-04-03T05:26:07;6.37;;;2.63;;
36747;SDS011;22716;51.556;5.080;2023-04-03T05:28:36;4.30;;;2.27;;
36747;SDS011;22716;51.556;5.080;2023-04-03T05:31:05;2.67;;;2.13;;
36747;SDS011;22716;51.556;5.080;2023-04-03T05:33:34;11.10;;;2.60;;
36747;SDS011;22716;51.556;5.080;2023-04-03T05:36:06;4.97;;;2.87;;
36747;SDS011;22716;51.556;5.080;2023-04-03T05:38:36;2.17;;;1.60;;
36747;SDS011;22716;51.556;5.080;2023-04-03T05:41:04;4.00;;;2.30;;
36747;SDS011;22716;51.556;5.080;2023-04-03T05:43:33;5.63;;;2.00;;
36747;SDS011;22716;51.556;5.080;2023-04-03T05:46:04;3.87;;;1.80;;
36747;SDS011;22716;51.556;5.080;2023-04-03T05:48:37;4.77;;;1.63;;
36747;SDS011;22716;51.556;5.080;2023-04-03T05:51:09;7.60;;;2.87;;
36747;SDS011;22716;51.556;5.080;2023-04-03T05:53:43;7.17;;;1.63;;
36747;SDS011;22716;51.556;5.080;2023-04-03T05:56:13;1.93;;;1.60;;
36747;SDS011;22716;51.556;5.080;2023-04-03T05:58:42;3.00;;;2.00;;
36747;SDS011;22716;51.556;5.080;2023-04-03T06:01:11;6.47;;;1.80;;
36747;SDS011;22716;51.556;5.080;2023-04-03T06:03:41;5.03;;;1.93;;
36747;SDS011;22716;51.556;5.080;2023-04-03T06:06:14;6.20;;;2.10;;
36747;SDS011;22716;51.556;5.080;2023-04-03T06:08:43;3.17;;;1.90;;
36747;SDS011;22716;51.556;5.080;2023-04-03T06:11:11;5.97;;;1.80;;
36747;SDS011;22716;51.556;5.080;2023-04-03T06:13:40;3.43;;;1.70;;
36747;SDS011;22716;51.556;5.080;2023-04-03T06:16:11;8.37;;;2.17;;
36747;SDS011;22716;51.556;5.080;2023-04-03T06:18:42;3.63;;;1.63;;
36747;SDS011;22716;51.556;5.080;2023-04-03T06:21:11;6.23;;;2.07;;
36747;SDS011;22716;51.556;5.080;2023-04-03T06:23:42;2.97;;;1.60;;
36747;SDS011;22716;51.556;5.080;2023-04-03T06:26:11;6.80;;;1.67;;
36747;SDS011;22716;51.556;5.080;2023-04-03T06:28:40;4.73;;;1.63;;
36747;SDS011;22716;51.556;5.080;2023-04-03T06:31:08;3.43;;;1.90;;
36747;SDS011;22716;51.556;5.080;2023-04-03T06:33:37;4.23;;;1.67;;
36747;SDS011;22716;51.556;5.080;2023-04-03T06:36:06;5.53;;;1.60;;
36747;SDS011;22716;51.556;5.080;2023-04-03T06:38:41;5.40;;;1.73;;
36747;SDS011;22716;51.556;5.080;2023-04-03T06:41:10;2.17;;;1.70;;
36747;SDS011;22716;51.556;5.080;2023-04-03T06:43:38;7.03;;;1.60;;
36747;SDS011;22716;51.556;5.080;2023-04-03T06:46:12;4.07;;;1.80;;
36747;SDS011;22716;51.556;5.080;2023-04-03T06:48:43;4.77;;;1.50;;
36747;SDS011;22716;51.556;5.080;2023-04-03T06:51:19;3.77;;;2.00;;
36747;SDS011;22716;51.556;5.080;2023-04-03T06:53:53;4.37;;;1.87;;
36747;SDS011;22716;51.556;5.080;2023-04-03T06:56:24;6.97;;;1.93;;
36747;SDS011;22716;51.556;5.080;2023-04-03T06:58:54;4.63;;;2.20;;
36747;SDS011;22716;51.556;5.080;2023-04-03T07:01:24;4.67;;;1.90;;
36747;SDS011;22716;51.556;5.080;2023-04-03T07:03:54;6.47;;;1.80;;
36747;SDS011;22716;51.556;5.080;2023-04-03T07:06:24;5.00;;;2.10;;
36747;SDS011;22716;51.556;5.080;2023-04-03T07:08:57;5.50;;;1.40;;
36747;SDS011;22716;51.556;5.080;2023-04-03T07:11:25;6.43;;;2.40;;
36747;SDS011;22716;51.556;5.080;2023-04-03T07:13:54;5.13;;;1.60;;
36747;SDS011;22716;51.556;5.080;2023-04-03T07:16:23;3.93;;;2.30;;
36747;SDS011;22716;51.556;5.080;2023-04-03T07:18:52;3.30;;;1.77;;
36747;SDS011;22716;51.556;5.080;2023-04-03T07:21:21;6.93;;;2.00;;
36747;SDS011;22716;51.556;5.080;2023-04-03T07:23:50;4.97;;;1.80;;
36747;SDS011;22716;51.556;5.080;2023-04-03T07:26:21;5.17;;;1.93;;
36747;SDS011;22716;51.556;5.080;2023-04-03T07:28:50;4.20;;;1.40;;
36747;SDS011;22716;51.556;5.080;2023-04-03T07:31:19;3.90;;;1.50;;
36747;SDS011;22716;51.556;5.080;2023-04-03T07:33:48;3.63;;;1.60;;
36747;SDS011;22716;51.556;5.080;2023-04-03T07:36:17;4.53;;;2.40;;
36747;SDS011;22716;51.556;5.080;2023-04-03T07:38:48;4.13;;;1.50;;
36747;SDS011;22716;51.556;5.080;2023-04-03T07:41:17;3.10;;;1.70;;
36747;SDS011;22716;51.556;5.080;2023-04-03T07:43:49;2.17;;;1.60;;
36747;SDS011;22716;51.556;5.080;2023-04-03T07:46:19;4.90;;;1.70;;
36747;SDS011;22716;51.556;5.080;2023-04-03T07:48:47;4.83;;;1.73;;
36747;SDS011;22716;51.556;5.080;2023-04-03T07:51:16;4.83;;;1.87;;
36747;SDS011;22716;51.556;5.080;2023-04-03T07:53:45;4.10;;;1.50;;
36747;SDS011;22716;51.556;5.080;2023-04-03T07:56:14;4.73;;;1.50;;
36747;SDS011;22716;51.556;5.080;2023-04-03T07:58:48;3.03;;;1.47;;
36747;SDS011;22716;51.556;5.080;2023-04-03T08:01:17;4.10;;;1.50;;
36747;SDS011;22716;51.556;5.080;2023-04-03T08:03:46;4.90;;;1.40;;
36747;SDS011;22716;51.556;5.080;2023-04-03T08:06:15;5.17;;;2.17;;
36747;SDS011;22716;51.556;5.080;2023-04-03T08:08:43;6.40;;;1.80;;
36747;SDS011;22716;51.556;5.080;2023-04-03T08:11:12;8.30;;;1.87;;
36747;SDS011;22716;51.556;5.080;2023-04-03T08:13:41;5.57;;;1.67;;
36747;SDS011;22716;51.556;5.080;2023-04-03T08:16:14;2.50;;;1.33;;
36747;SDS011;22716;51.556;5.080;2023-04-03T08:18:45;2.27;;;1.33;;
36747;SDS011;22716;51.556;5.080;2023-04-03T08:21:14;4.93;;;1.20;;
36747;SDS011;22716;51.556;5.080;2023-04-03T08:23:43;2.63;;;1.50;;
36747;SDS011;22716;51.556;5.080;2023-04-03T08:26:13;7.53;;;1.60;;
36747;SDS011;22716;51.556;5.080;2023-04-03T08:28:43;4.13;;;1.90;;
36747;SDS011;22716;51.556;5.080;2023-04-03T08:31:15;2.67;;;1.70;;
36747;SDS011;22716;51.556;5.080;2023-04-03T08:33:46;9.53;;;4.40;;
36747;SDS011;22716;51.556;5.080;2023-04-03T08:36:17;3.93;;;1.27;;
36747;SDS011;22716;51.556;5.080;2023-04-03T08:38:48;3.67;;;1.50;;
36747;SDS011;22716;51.556;5.080;2023-04-03T08:41:19;5.17;;;1.03;;
36747;SDS011;22716;51.556;5.080;2023-04-03T08:43:58;3.47;;;1.07;;
36747;SDS011;22716;51.556;5.080;2023-04-03T08:46:37;3.50;;;1.60;;
36747;SDS011;22716;51.556;5.080;2023-04-03T08:49:18;3.15;;;1.20;;
36747;SDS011;22716;51.556;5.080;2023-04-03T08:51:53;5.53;;;1.40;;
36747;SDS011;22716;51.556;5.080;2023-04-03T08:54:26;5.80;;;1.73;;
36747;SDS011;22716;51.556;5.080;2023-04-03T08:56:58;1.83;;;1.35;;
36747;SDS011;22716;51.556;5.080;2023-04-03T08:59:32;2.83;;;1.17;;
36747;SDS011;22716;51.556;5.080;2023-04-03T09:02:12;1.33;;;1.00;;
36747;SDS011;22716;51.556;5.080;2023-04-03T09:04:54;4.00;;;1.43;;
36747;SDS011;22716;51.556;5.080;2023-04-03T09:07:25;1.50;;;1.23;;
36747;SDS011;22716;51.556;5.080;2023-04-03T09:10:01;1.53;;;1.00;;
36747;SDS011;22716;51.556;5.080;2023-04-03T09:12:32;7.40;;;1.77;;
36747;SDS011;22716;51.556;5.080;2023-04-03T09:15:10;2.07;;;1.17;;
36747;SDS011;22716;51.556;5.080;2023-04-03T09:17:49;3.87;;;0.70;;
36747;SDS011;22716;51.556;5.080;2023-04-03T09:20:27;7.40;;;1.77;;
36747;SDS011;22716;51.556;5.080;2023-04-03T09:23:15;11.63;;;1.00;;
36747;SDS011;22716;51.556;5.080;2023-04-03T09:25:48;1.37;;;0.90;;
36747;SDS011;22716;51.556;5.080;2023-04-03T09:28:20;1.70;;;1.00;;
36747;SDS011;22716;51.556;5.080;2023-04-03T09:30:49;1.77;;;0.80;;
36747;SDS011;22716;51.556;5.080;2023-04-03T09:33:21;2.40;;;1.07;;
36747;SDS011;22716;51.556;5.080;2023-04-03T09:35:50;4.17;;;1.40;;
36747;SDS011;22716;51.556;5.080;2023-04-03T09:38:20;2.87;;;0.87;;
36747;SDS011;22716;51.556;5.080;2023-04-03T09:40:51;4.90;;;1.23;;
36747;SDS011;22716;51.556;5.080;2023-04-03T09:43:34;18.43;;;2.20;;
36747;SDS011;22716;51.556;5.080;2023-04-03T09:46:16;5.23;;;1.17;;
36747;SDS011;22716;51.556;5.080;2023-04-03T09:48:55;3.00;;;0.63;;
36747;SDS011;22716;51.556;5.080;2023-04-03T09:51:26;2.87;;;0.80;;
36747;SDS011;22716;51.556;5.080;2023-04-03T09:53:56;6.33;;;1.37;;
36747;SDS011;22716;51.556;5.080;2023-04-03T09:56:27;4.13;;;1.57;;
36747;SDS011;22716;51.556;5.080;2023-04-03T09:59:07;0.80;;;0.50;;
36747;SDS011;22716;51.556;5.080;2023-04-03T10:01:43;2.50;;;1.40;;
36747;SDS011;22716;51.556;5.080;2023-04-03T10:04:28;1.80;;;1.13;;
36747;SDS011;22716;51.556;5.080;2023-04-03T10:10:02;1.53;;;0.80;;
36747;SDS011;22716;51.556;5.080;2023-04-03T10:12:48;3.00;;;1.50;;
36747;SDS011;22716;51.556;5.080;2023-04-03T10:15:17;0.90;;;0.90;;
36747;SDS011;22716;51.556;5.080;2023-04-03T10:17:50;2.73;;;0.73;;
36747;SDS011;22716;51.556;5.080;2023-04-03T10:20:30;4.27;;;1.00;;
36747;SDS011;22716;51.556;5.080;2023-04-03T10:23:06;1.13;;;0.60;;
36747;SDS011;22716;51.556;5.080;2023-04-03T10:25:47;2.07;;;0.70;;
36747;SDS011;22716;51.556;5.080;2023-04-03T10:28:25;1.00;;;0.60;;
36747;SDS011;22716;51.556;5.080;2023-04-03T10:31:01;2.85;;;1.50;;
36747;SDS011;22716;51.556;5.080;2023-04-03T10:33:49;2.37;;;1.03;;
36747;SDS011;22716;51.556;5.080;2023-04-03T10:36:32;3.83;;;1.00;;
36747;SDS011;22716;51.556;5.080;2023-04-03T10:39:10;1.03;;;0.70;;
36747;SDS011;22716;51.556;5.080;2023-04-03T10:41:52;1.13;;;0.60;;
36747;SDS011;22716;51.556;5.080;2023-04-03T10:44:30;1.40;;;0.70;;
36747;SDS011;22716;51.556;5.080;2023-04-03T10:47:08;3.47;;;0.70;;
36747;SDS011;22716;51.556;5.080;2023-04-03T10:49:43;0.90;;;0.63;;
36747;SDS011;22716;51.556;5.080;2023-04-03T10:52:23;5.03;;;0.87;;
36747;SDS011;22716;51.556;5.080;2023-04-03T10:55:00;2.37;;;0.60;;
36747;SDS011;22716;51.556;5.080;2023-04-03T10:57:35;3.17;;;0.63;;
36747;SDS011;22716;51.556;5.080;2023-04-03T11:00:07;0.53;;;0.53;;
36747;SDS011;22716;51.556;5.080;2023-04-03T11:02:45;9.60;;;1.47;;
36747;SDS011;22716;51.556;5.080;2023-04-03T11:05:23;2.33;;;1.30;;
36747;SDS011;22716;51.556;5.080;2023-04-03T11:08:03;2.00;;;0.50;;
36747;SDS011;22716;51.556;5.080;2023-04-03T11:10:37;2.10;;;0.73;;
36747;SDS011;22716;51.556;5.080;2023-04-03T11:13:11;1.85;;;0.60;;
36747;SDS011;22716;51.556;5.080;2023-04-03T11:15:43;16.33;;;1.90;;
36747;SDS011;22716;51.556;5.080;2023-04-03T11:18:13;9.50;;;0.73;;
36747;SDS011;22716;51.556;5.080;2023-04-03T11:20:47;2.87;;;0.50;;
36747;SDS011;22716;51.556;5.080;2023-04-03T11:23:25;1.07;;;0.73;;
36747;SDS011;22716;51.556;5.080;2023-04-03T11:25:55;17.43;;;2.97;;
36747;SDS011;22716;51.556;5.080;2023-04-03T11:28:30;2.53;;;0.77;;
36747;SDS011;22716;51.556;5.080;2023-04-03T11:31:01;3.23;;;0.50;;
36747;SDS011;22716;51.556;5.080;2023-04-03T11:33:40;2.90;;;0.53;;
36747;SDS011;22716;51.556;5.080;2023-04-03T11:36:18;0.87;;;0.87;;
36747;SDS011;22716;51.556;5.080;2023-04-03T11:38:55;2.20;;;1.20;;
36747;SDS011;22716;51.556;5.080;2023-04-03T11:41:27;0.60;;;0.40;;
36747;SDS011;22716;51.556;5.080;2023-04-03T11:43:58;4.05;;;0.60;;
36747;SDS011;22716;51.556;5.080;2023-04-03T11:58:24;3.10;;;1.10;;
36747;SDS011;22716;51.556;5.080;2023-04-03T12:00:57;3.73;;;0.80;;
36747;SDS011;22716;51.556;5.080;2023-04-03T12:09:32;8.15;;;0.88;;
36747;SDS011;22716;51.556;5.080;2023-04-03T12:12:28;1.50;;;0.60;;
36747;SDS011;22716;51.556;5.080;2023-04-03T12:15:16;1.83;;;0.90;;
36747;SDS011;22716;51.556;5.080;2023-04-03T12:17:47;4.10;;;1.00;;
36747;SDS011;22716;51.556;5.080;2023-04-03T12:23:26;2.77;;;0.77;;
36747;SDS011;22716;51.556;5.080;2023-04-03T12:26:02;1.70;;;0.60;;
36747;SDS011;22716;51.556;5.080;2023-04-03T12:28:40;2.67;;;0.63;;
36747;SDS011;22716;51.556;5.080;2023-04-03T12:31:12;1.00;;;0.50;;
36747;SDS011;22716;51.556;5.080;2023-04-03T12:36:42;0.60;;;0.50;;
36747;SDS011;22716;51.556;5.080;2023-04-03T12:39:24;1.07;;;0.80;;
36747;SDS011;22716;51.556;5.080;2023-04-03T12:42:08;1.02;;;0.63;;
36747;SDS011;22716;51.556;5.080;2023-04-03T12:44:53;2.35;;;1.63;;
36747;SDS011;22716;51.556;5.080;2023-04-03T12:47:31;3.30;;;1.20;;
36747;SDS011;22716;51.556;5.080;2023-04-03T12:50:16;1.03;;;0.70;;
36747;SDS011;22716;51.556;5.080;2023-04-03T12:52:50;3.00;;;0.73;;
36747;SDS011;22716;51.556;5.080;2023-04-03T12:55:24;1.03;;;0.70;;
36747;SDS011;22716;51.556;5.080;2023-04-03T12:57:53;1.27;;;1.10;;
36747;SDS011;22716;51.556;5.080;2023-04-03T13:00:29;0.80;;;0.53;;
36747;SDS011;22716;51.556;5.080;2023-04-03T13:03:04;0.60;;;0.60;;
36747;SDS011;22716;51.556;5.080;2023-04-03T13:05:47;1.43;;;0.83;;
36747;SDS011;22716;51.556;5.080;2023-04-03T13:08:16;2.30;;;0.70;;
36747;SDS011;22716;51.556;5.080;2023-04-03T13:10:50;4.63;;;1.23;;
36747;SDS011;22716;51.556;5.080;2023-04-03T13:13:23;39.10;;;3.63;;
36747;SDS011;22716;51.556;5.080;2023-04-03T13:15:55;1.03;;;0.97;;
36747;SDS011;22716;51.556;5.080;2023-04-03T13:18:25;1.40;;;0.83;;
36747;SDS011;22716;51.556;5.080;2023-04-03T13:21:00;2.87;;;0.80;;
36747;SDS011;22716;51.556;5.080;2023-04-03T13:23:33;5.63;;;1.25;;
36747;SDS011;22716;51.556;5.080;2023-04-03T13:26:05;1.07;;;0.87;;
36747;SDS011;22716;51.556;5.080;2023-04-03T13:28:34;3.07;;;1.13;;
36747;SDS011;22716;51.556;5.080;2023-04-03T13:31:13;1.73;;;1.00;;
36747;SDS011;22716;51.556;5.080;2023-04-03T13:33:53;2.03;;;1.40;;
36747;SDS011;22716;51.556;5.080;2023-04-03T13:36:25;2.83;;;1.10;;
36747;SDS011;22716;51.556;5.080;2023-04-03T13:41:30;2.17;;;0.77;;
36747;SDS011;22716;51.556;5.080;2023-04-03T13:44:14;3.60;;;0.90;;
36747;SDS011;22716;51.556;5.080;2023-04-03T13:46:57;2.37;;;1.40;;
36747;SDS011;22716;51.556;5.080;2023-04-03T13:49:29;6.00;;;1.40;;
36747;SDS011;22716;51.556;5.080;2023-04-03T13:52:01;4.27;;;1.10;;
36747;SDS011;22716;51.556;5.080;2023-04-03T13:54:32;2.03;;;1.20;;
36747;SDS011;22716;51.556;5.080;2023-04-03T13:57:10;4.07;;;1.10;;
36747;SDS011;22716;51.556;5.080;2023-04-03T13:59:41;3.20;;;1.10;;
36747;SDS011;22716;51.556;5.080;2023-04-03T14:02:19;1.27;;;1.00;;
36747;SDS011;22716;51.556;5.080;2023-04-03T14:04:52;2.50;;;0.87;;
36747;SDS011;22716;51.556;5.080;2023-04-03T14:07:25;4.07;;;1.20;;
36747;SDS011;22716;51.556;5.080;2023-04-03T14:09:54;8.23;;;1.20;;
36747;SDS011;22716;51.556;5.080;2023-04-03T14:12:25;2.37;;;1.13;;
36747;SDS011;22716;51.556;5.080;2023-04-03T14:14:56;4.53;;;2.17;;
36747;SDS011;22716;51.556;5.080;2023-04-03T14:17:28;4.95;;;1.48;;
36747;SDS011;22716;51.556;5.080;2023-04-03T14:19:58;10.88;;;2.55;;
36747;SDS011;22716;51.556;5.080;2023-04-03T14:22:28;3.17;;;0.98;;
36747;SDS011;22716;51.556;5.080;2023-04-03T14:25:00;4.88;;;1.27;;
36747;SDS011;22716;51.556;5.080;2023-04-03T14:27:31;3.72;;;1.45;;
36747;SDS011;22716;51.556;5.080;2023-04-03T14:30:04;7.60;;;1.05;;
36747;SDS011;22716;51.556;5.080;2023-04-03T14:32:36;2.97;;;1.27;;
36747;SDS011;22716;51.556;5.080;2023-04-03T14:35:06;2.70;;;1.48;;
36747;SDS011;22716;51.556;5.080;2023-04-03T14:37:36;3.90;;;1.48;;
36747;SDS011;22716;51.556;5.080;2023-04-03T14:40:06;6.97;;;2.17;;
36747;SDS011;22716;51.556;5.080;2023-04-03T14:42:36;3.15;;;1.05;;
36747;SDS011;22716;51.556;5.080;2023-04-03T14:45:07;4.70;;;1.73;;
36747;SDS011;22716;51.556;5.080;2023-04-03T14:47:42;4.53;;;1.42;;
36747;SDS011;22716;51.556;5.080;2023-04-03T14:50:16;2.47;;;1.20;;
36747;SDS011;22716;51.556;5.080;2023-04-03T14:52:47;2.63;;;1.17;;
36747;SDS011;22716;51.556;5.080;2023-04-03T14:55:20;1.83;;;0.80;;
36747;SDS011;22716;51.556;5.080;2023-04-03T14:57:51;4.55;;;0.77;;
36747;SDS011;22716;51.556;5.080;2023-04-03T15:00:21;1.83;;;1.25;;
36747;SDS011;22716;51.556;5.080;2023-04-03T15:02:53;3.25;;;1.38;;
36747;SDS011;22716;51.556;5.080;2023-04-03T15:05:22;3.45;;;1.35;;
36747;SDS011;22716;51.556;5.080;2023-04-03T15:07:52;2.15;;;1.15;;
36747;SDS011;22716;51.556;5.080;2023-04-03T15:10:24;3.05;;;1.60;;
36747;SDS011;22716;51.556;5.080;2023-04-03T15:12:54;2.20;;;1.45;;
36747;SDS011;22716;51.556;5.080;2023-04-03T15:15:24;2.28;;;1.35;;
36747;SDS011;22716;51.556;5.080;2023-04-03T15:17:59;3.42;;;0.90;;
36747;SDS011;22716;51.556;5.080;2023-04-03T15:20:28;4.68;;;1.42;;
36747;SDS011;22716;51.556;5.080;2023-04-03T15:22:59;2.83;;;1.10;;
36747;SDS011;22716;51.556;5.080;2023-04-03T15:25:29;2.83;;;2.00;;
36747;SDS011;22716;51.556;5.080;2023-04-03T15:27:58;4.70;;;1.27;;
36747;SDS011;22716;51.556;5.080;2023-04-03T15:30:28;14.90;;;1.70;;
36747;SDS011;22716;51.556;5.080;2023-04-03T15:33:00;2.27;;;1.23;;
36747;SDS011;22716;51.556;5.080;2023-04-03T15:35:28;14.07;;;2.40;;
36747;SDS011;22716;51.556;5.080;2023-04-03T15:37:57;1.43;;;1.00;;
36747;SDS011;22716;51.556;5.080;2023-04-03T15:40:26;1.67;;;1.07;;
36747;SDS011;22716;51.556;5.080;2023-04-03T15:42:55;2.43;;;1.10;;
36747;SDS011;22716;51.556;5.080;2023-04-03T15:45:24;4.53;;;1.70;;
36747;SDS011;22716;51.556;5.080;2023-04-03T15:47:52;3.37;;;1.67;;